createdAt,value
2023-02-02T00:00:49.488Z,98806.91
2023-02-02T00:03:18.947Z,98802.56
2023-02-02T00:05:48.952Z,98800.06
2023-02-02T00:08:24.190Z,98811.94
2023-02-02T00:10:53.147Z,98788.75
2023-02-02T00:13:22.130Z,98807.63
2023-02-02T00:15:54.975Z,98803.41
2023-02-02T00:18:24.460Z,98798.25
2023-02-02T00:20:54.289Z,98799.94
2023-02-02T00:23:30.404Z,98801.69
2023-02-02T00:25:59.441Z,98805.13
2023-02-02T00:28:28.600Z,98801.81
2023-02-02T00:31:00.000Z,98798.41
2023-02-02T00:33:29.444Z,98798.38
2023-02-02T00:35:58.523Z,98802.44
2023-02-02T00:38:27.801Z,98797.28
2023-02-02T00:40:57.432Z,98798.13
2023-02-02T00:43:26.962Z,98799.03
2023-02-02T00:45:54.335Z,98799.94
2023-02-02T00:48:26.544Z,98796.53
2023-02-02T00:51:02.091Z,98791.41
2023-02-02T00:53:32.159Z,98790.56
2023-02-02T00:56:01.251Z,98792.31
2023-02-02T00:58:35.468Z,98794.06
2023-02-02T01:01:04.663Z,98753.75
2023-02-02T01:03:35.855Z,98792.97
2023-02-02T01:06:05.518Z,98765.44
2023-02-02T01:08:34.612Z,98791.94
2023-02-02T01:11:10.400Z,98799.59
2023-02-02T01:13:44.530Z,98793.72
2023-02-02T01:16:14.108Z,98773.22
2023-02-02T01:18:45.590Z,98788.75
2023-02-02T01:21:19.948Z,98790.41
2023-02-02T01:23:49.720Z,98782.53
2023-02-02T01:26:19.713Z,98765.19
2023-02-02T01:31:35.557Z,98780.38
2023-02-02T01:34:11.653Z,98783.06
2023-02-02T01:36:45.824Z,98765.78
2023-02-02T01:39:15.766Z,98778.56
2023-02-02T01:41:44.861Z,98786.81
2023-02-02T01:44:43.801Z,98780.13
2023-02-02T01:47:18.592Z,98780.16
2023-02-02T01:49:50.423Z,98772.44
2023-02-02T01:52:23.121Z,98777.56
2023-02-02T01:54:55.413Z,98745.00
2023-02-02T01:57:29.346Z,98790.19
2023-02-02T02:00:00.507Z,98782.56
2023-02-02T02:02:47.595Z,98782.69
2023-02-02T02:05:25.540Z,98733.31
2023-02-02T02:07:58.275Z,98781.28
2023-02-02T02:10:32.783Z,98763.53
2023-02-02T02:13:02.085Z,98753.22
2023-02-02T02:15:50.527Z,98774.53
2023-02-02T02:18:31.700Z,98783.72
2023-02-02T02:21:48.504Z,98782.88
2023-02-02T02:25:00.428Z,98789.72
2023-02-02T02:28:13.657Z,98787.25
2023-02-02T02:31:24.228Z,98794.13
2023-02-02T02:34:02.059Z,98791.47
2023-02-02T02:36:41.380Z,98790.63
2023-02-02T02:39:16.003Z,98795.53
2023-02-02T02:41:54.670Z,98792.25
2023-02-02T02:44:24.511Z,98787.97
2023-02-02T02:46:54.677Z,98777.06
2023-02-02T02:49:26.355Z,98796.59
2023-02-02T02:51:57.940Z,98796.00
2023-02-02T02:54:35.476Z,98790.97
2023-02-02T02:57:45.820Z,98793.50
2023-02-02T03:00:27.127Z,98793.38
2023-02-02T03:03:03.712Z,98754.06
2023-02-02T03:05:45.076Z,98798.69
2023-02-02T03:08:21.618Z,98806.38
2023-02-02T03:10:58.640Z,98797.97
2023-02-02T03:13:28.791Z,98797.00
2023-02-02T03:16:03.305Z,98793.72
2023-02-02T03:18:34.428Z,98797.09
2023-02-02T03:21:12.011Z,98796.38
2023-02-02T03:23:41.575Z,98800.69
2023-02-02T03:26:10.853Z,98779.22
2023-02-02T03:28:40.738Z,98787.84
2023-02-02T03:31:15.146Z,98775.72
2023-02-02T03:33:45.010Z,98792.69
2023-02-02T03:36:15.959Z,98800.50
2023-02-02T03:38:50.795Z,98812.41
2023-02-02T03:41:20.115Z,98808.22
2023-02-02T03:43:49.549Z,98803.06
2023-02-02T03:46:18.840Z,98805.53
2023-02-02T03:48:48.421Z,98810.44
2023-02-02T03:51:19.497Z,98810.44
2023-02-02T03:53:49.161Z,98821.50
2023-02-02T03:56:18.886Z,98818.16
2023-02-02T03:58:48.431Z,98819.94
2023-02-02T04:01:22.916Z,98815.69
2023-02-02T04:03:52.678Z,98818.19
2023-02-02T04:06:24.115Z,98818.19
2023-02-02T04:09:03.503Z,98818.19
2023-02-02T04:11:32.677Z,98798.47
2023-02-02T04:14:01.758Z,98815.72
2023-02-02T04:16:34.390Z,98810.34
2023-02-02T04:19:03.653Z,98820.34
2023-02-02T04:21:34.808Z,98818.59
2023-02-02T04:24:03.956Z,98828.72
2023-02-02T04:26:33.141Z,98820.25
2023-02-02T04:29:02.299Z,98808.31
2023-02-02T04:31:31.613Z,98808.41
2023-02-02T04:34:01.810Z,98803.78
2023-02-02T04:36:30.889Z,98824.38
2023-02-02T04:39:01.867Z,98824.28
2023-02-02T04:41:31.004Z,98813.16
2023-02-02T04:44:06.312Z,98819.16
2023-02-02T04:46:35.571Z,98826.84
2023-02-02T04:49:04.756Z,98831.84
2023-02-02T04:51:33.953Z,98812.94
2023-02-02T04:54:05.203Z,98825.69
2023-02-02T04:56:34.608Z,98836.72
2023-02-02T04:59:03.896Z,98836.63
2023-02-02T05:01:36.133Z,98834.13
2023-02-02T05:04:08.219Z,98828.13
2023-02-02T05:09:15.076Z,98840.06
2023-02-02T05:11:45.136Z,98828.09
2023-02-02T05:14:16.614Z,98845.13
2023-02-02T05:16:45.963Z,98820.31
2023-02-02T05:19:16.646Z,98841.59
2023-02-02T05:21:53.482Z,98844.16
2023-02-02T05:24:24.561Z,98838.97
2023-02-02T05:26:57.980Z,98859.31
2023-02-02T05:29:33.117Z,98859.38
2023-02-02T05:32:02.491Z,98857.53
2023-02-02T05:34:32.107Z,98857.28
2023-02-02T05:37:01.326Z,98858.97
2023-02-02T05:39:32.589Z,98858.91
2023-02-02T05:42:01.865Z,98853.91
2023-02-02T05:44:31.063Z,98860.78
2023-02-02T05:47:00.656Z,98859.09
2023-02-02T05:49:29.966Z,98864.84
2023-02-02T05:51:59.960Z,98838.88
2023-02-02T05:54:29.240Z,98861.38
2023-02-02T05:57:02.807Z,98858.84
2023-02-02T05:59:32.125Z,98841.88
2023-02-02T06:02:01.136Z,98856.56
2023-02-02T06:04:38.878Z,98875.28
2023-02-02T06:07:08.011Z,98863.66
2023-02-02T06:09:37.057Z,98868.94
2023-02-02T06:12:24.232Z,98873.28
2023-02-02T06:14:52.983Z,98876.81
2023-02-02T06:17:21.930Z,98886.09
2023-02-02T06:19:51.154Z,98880.19
2023-02-02T06:22:20.267Z,98873.31
2023-02-02T06:24:49.428Z,98875.94
2023-02-02T06:27:24.427Z,98880.16
2023-02-02T06:29:53.595Z,98878.69
2023-02-02T06:32:22.761Z,98884.00
2023-02-02T06:34:52.288Z,98884.97
2023-02-02T06:37:21.408Z,98879.00
2023-02-02T06:39:51.514Z,98876.50
2023-02-02T06:44:59.801Z,98877.56
2023-02-02T06:47:29.271Z,98870.00
2023-02-02T06:50:03.500Z,98864.94
2023-02-02T06:52:32.743Z,98884.75
2023-02-02T06:55:01.958Z,98867.84
2023-02-02T06:57:39.516Z,98876.69
2023-02-02T07:00:10.467Z,98875.88
2023-02-02T07:02:39.736Z,98883.56
2023-02-02T07:05:10.376Z,98875.16
2023-02-02T07:07:44.600Z,98881.31
2023-02-02T07:11:11.110Z,98865.81
2023-02-02T07:13:06.489Z,98883.66
2023-02-02T07:15:36.251Z,98875.25
2023-02-02T07:18:05.372Z,98889.06
2023-02-02T07:20:35.443Z,98885.81
2023-02-02T07:23:05.010Z,98890.22
2023-02-02T07:25:34.169Z,98885.38
2023-02-02T07:28:05.897Z,98890.59
2023-02-02T07:30:35.329Z,98883.00
2023-02-02T07:33:04.531Z,98888.16
2023-02-02T07:35:33.807Z,98876.16
2023-02-02T07:38:02.919Z,98858.88
2023-02-02T07:40:32.018Z,98888.78
2023-02-02T07:43:02.310Z,98893.06
2023-02-02T07:45:33.532Z,98876.94
2023-02-02T07:48:08.343Z,98899.41
2023-02-02T07:50:37.479Z,98910.44
2023-02-02T07:53:06.637Z,98904.44
2023-02-02T07:55:40.840Z,98900.88
2023-02-02T07:58:10.419Z,98901.56
2023-02-02T08:00:41.432Z,98908.22
2023-02-02T08:03:15.695Z,98898.91
2023-02-02T08:05:44.883Z,98889.44
2023-02-02T08:08:13.988Z,98909.22
2023-02-02T08:10:50.360Z,98898.31
2023-02-02T08:13:19.897Z,98904.94
2023-02-02T08:15:56.006Z,98906.50
2023-02-02T08:18:25.305Z,98904.84
2023-02-02T08:20:54.613Z,98903.25
2023-02-02T08:23:30.457Z,98905.03
2023-02-02T08:26:08.534Z,98896.47
2023-02-02T08:28:38.496Z,98901.56
2023-02-02T08:31:12.311Z,98902.50
2023-02-02T08:33:46.614Z,98884.59
2023-02-02T08:36:16.958Z,98876.13
2023-02-02T08:38:51.751Z,98894.25
2023-02-02T08:41:23.383Z,98904.53
2023-02-02T08:43:57.716Z,98885.88
2023-02-02T08:46:29.039Z,98896.97
2023-02-02T08:48:58.524Z,98892.75
2023-02-02T08:51:27.576Z,98893.50
2023-02-02T08:53:56.897Z,98898.59
2023-02-02T08:59:08.040Z,98887.91
2023-02-02T09:01:39.290Z,98889.63
2023-02-02T09:04:10.362Z,98891.25
2023-02-02T09:06:41.447Z,98892.06
2023-02-02T09:09:20.730Z,98892.00
2023-02-02T09:11:49.902Z,98870.41
2023-02-02T09:14:19.010Z,98885.75
2023-02-02T09:16:50.565Z,98889.25
2023-02-02T09:19:19.666Z,98877.13
2023-02-02T09:21:50.799Z,98891.66
2023-02-02T09:24:20.366Z,98894.28
2023-02-02T09:26:49.527Z,98879.84
2023-02-02T09:29:24.897Z,98894.50
2023-02-02T09:31:58.328Z,98887.00
2023-02-02T09:34:27.577Z,98888.03
2023-02-02T09:36:56.753Z,98883.97
2023-02-02T09:39:31.000Z,98888.41
2023-02-02T09:42:20.655Z,98886.16
2023-02-02T09:45:02.153Z,98885.47
2023-02-02T09:47:59.000Z,98893.16
2023-02-02T09:50:41.762Z,98886.94
2023-02-02T09:53:22.714Z,98878.28
2023-02-02T09:55:59.602Z,98879.97
2023-02-02T09:58:33.295Z,98868.81
2023-02-02T10:01:08.087Z,98871.31
2023-02-02T10:03:53.575Z,98866.03
2023-02-02T10:06:32.784Z,98880.59
2023-02-02T10:09:10.936Z,98882.38
2023-02-02T10:11:47.331Z,98878.22
2023-02-02T10:14:22.149Z,98873.13
2023-02-02T10:16:54.361Z,98873.19
2023-02-02T10:19:30.251Z,98867.38
2023-02-02T10:22:08.641Z,98870.78
2023-02-02T10:24:39.097Z,98869.16
2023-02-02T10:27:17.204Z,98869.16
2023-02-02T10:29:55.320Z,98860.47
2023-02-02T10:32:27.581Z,98860.38
2023-02-02T10:35:23.519Z,98864.66
2023-02-02T10:38:03.265Z,98863.84
2023-02-02T10:40:44.406Z,98851.88
2023-02-02T10:43:48.248Z,98851.03
2023-02-02T10:46:22.121Z,98847.56
2023-02-02T10:48:52.597Z,98856.88
2023-02-02T10:51:28.824Z,98831.88
2023-02-02T10:54:00.705Z,98859.19
2023-02-02T10:56:38.120Z,98869.28
2023-02-02T10:59:11.753Z,98860.75
2023-02-02T11:01:41.279Z,98867.72
2023-02-02T11:04:24.684Z,98858.41
2023-02-02T11:06:56.258Z,98852.47
2023-02-02T11:09:29.412Z,98857.66
2023-02-02T11:12:05.692Z,98843.28
2023-02-02T11:14:47.816Z,98865.47
2023-02-02T11:17:22.458Z,98851.47
2023-02-02T11:22:35.240Z,98851.22
2023-02-02T11:25:07.420Z,98863.06
2023-02-02T11:27:41.479Z,98856.34
2023-02-02T11:30:24.204Z,98864.16
2023-02-02T11:32:55.323Z,98861.59
2023-02-02T11:35:26.526Z,98872.59
2023-02-02T11:38:01.363Z,98859.88
2023-02-02T11:40:37.629Z,98850.56
2023-02-02T11:43:17.485Z,98872.91
2023-02-02T11:45:54.832Z,98874.72
2023-02-02T11:48:26.861Z,98884.09
2023-02-02T11:50:58.784Z,98883.03
2023-02-02T11:53:32.117Z,98885.38
2023-02-02T11:56:12.002Z,98884.53
2023-02-02T11:58:50.165Z,98876.88
2023-02-02T12:01:31.833Z,98876.97
2023-02-02T12:04:03.631Z,98890.81
2023-02-02T12:09:23.631Z,98890.81
2023-02-02T12:12:04.441Z,98905.13
2023-02-02T12:14:44.803Z,98884.66
2023-02-02T12:17:28.105Z,98891.34
2023-02-02T12:20:09.379Z,98893.03
2023-02-02T12:23:17.230Z,98891.34
2023-02-02T12:26:16.713Z,98894.78
2023-02-02T12:28:58.226Z,98894.81
2023-02-02T12:31:40.850Z,98892.22
2023-02-02T12:34:19.908Z,98901.50
2023-02-02T12:36:55.597Z,98896.41
2023-02-02T12:39:45.356Z,98890.50
2023-02-02T12:42:39.045Z,98892.25
2023-02-02T12:45:24.480Z,98897.34
2023-02-02T12:54:33.552Z,98895.06
2023-02-02T12:57:04.140Z,98906.91
2023-02-02T13:00:06.743Z,98896.69
2023-02-02T13:02:55.125Z,98907.03
2023-02-02T13:05:46.347Z,98906.22
2023-02-02T13:08:22.131Z,98870.25
2023-02-02T13:11:05.489Z,98895.03
2023-02-02T13:13:38.696Z,98902.63
2023-02-02T13:16:16.097Z,98899.22
2023-02-02T13:18:53.134Z,98915.41
2023-02-02T13:21:26.033Z,98906.94
2023-02-02T13:24:05.041Z,98909.41
2023-02-02T13:26:42.258Z,98888.00
2023-02-02T13:29:29.076Z,98903.50
2023-02-02T13:32:04.414Z,98904.25
2023-02-02T13:34:43.224Z,98905.06
2023-02-02T13:37:19.875Z,98908.31
2023-02-02T13:39:55.651Z,98897.13
2023-02-02T13:42:38.139Z,98903.13
2023-02-02T13:45:21.323Z,98844.75
2023-02-02T13:48:04.978Z,98908.00
2023-02-02T13:50:46.363Z,98907.28
2023-02-02T13:53:39.405Z,98909.06
2023-02-02T13:56:25.721Z,98914.06
2023-02-02T13:59:14.065Z,98909.03
2023-02-02T14:01:47.165Z,98908.13
2023-02-02T14:04:23.608Z,98911.41
2023-02-02T14:06:59.408Z,98908.81
2023-02-02T14:09:31.736Z,98899.97
2023-02-02T14:12:06.496Z,98921.25
2023-02-02T14:14:48.757Z,98917.91
2023-02-02T14:17:47.757Z,98928.22
2023-02-02T14:20:43.393Z,98916.28
2023-02-02T14:23:42.353Z,98917.16
2023-02-02T14:26:16.190Z,98928.09
2023-02-02T14:28:48.555Z,98928.03
2023-02-02T14:31:44.964Z,98930.63
2023-02-02T14:34:33.350Z,98930.56
2023-02-02T14:37:40.502Z,98925.31
2023-02-02T14:40:31.784Z,98946.47
2023-02-02T14:43:31.297Z,98941.38
2023-02-02T14:46:39.714Z,98937.91
2023-02-02T14:49:18.698Z,98937.06
2023-02-02T14:51:55.179Z,98944.78
2023-02-02T14:54:29.415Z,98949.84
2023-02-02T14:57:02.736Z,98951.56
2023-02-02T14:59:37.146Z,98947.97
2023-02-02T15:02:18.881Z,98949.63
2023-02-02T15:04:48.904Z,98953.06
2023-02-02T15:07:45.341Z,98956.56
2023-02-02T15:10:14.532Z,98960.88
2023-02-02T15:12:46.821Z,98955.75
2023-02-02T15:15:25.449Z,98948.97
2023-02-02T15:18:13.767Z,98957.47
2023-02-02T15:20:48.262Z,98954.88
2023-02-02T15:23:28.391Z,98959.81
2023-02-02T15:26:02.951Z,98970.81
2023-02-02T15:28:44.856Z,98951.31
2023-02-02T15:31:22.438Z,98973.41
2023-02-02T15:33:57.576Z,98971.78
2023-02-02T15:36:36.026Z,98982.06
2023-02-02T15:39:12.861Z,98971.91
2023-02-02T15:41:46.030Z,98964.34
2023-02-02T15:44:30.125Z,98973.75
2023-02-02T15:46:59.485Z,98956.66
2023-02-02T15:49:35.897Z,98969.50
2023-02-02T15:52:14.827Z,98959.13
2023-02-02T15:54:54.572Z,98982.31
2023-02-02T15:57:34.008Z,98979.66
2023-02-02T16:00:24.078Z,98963.38
2023-02-02T16:02:57.171Z,98980.53
2023-02-02T16:05:45.601Z,98982.22
2023-02-02T16:08:19.665Z,98965.13
2023-02-02T16:10:50.304Z,98989.00
2023-02-02T16:13:30.982Z,98994.88
2023-02-02T16:16:02.298Z,98994.78
2023-02-02T16:18:37.603Z,99003.38
2023-02-02T16:21:16.881Z,98978.56
2023-02-02T16:23:46.782Z,98995.72
2023-02-02T16:26:19.063Z,98999.78
2023-02-02T16:28:53.271Z,98995.56
2023-02-02T16:31:22.537Z,98999.94
2023-02-02T16:33:53.214Z,99002.50
2023-02-02T16:36:31.261Z,98999.06
2023-02-02T16:39:01.174Z,98980.13
2023-02-02T16:41:34.007Z,99000.50
2023-02-02T16:44:31.314Z,99016.66
2023-02-02T16:47:01.759Z,99013.03
2023-02-02T16:49:31.936Z,98992.16
2023-02-02T16:52:17.634Z,98993.91
2023-02-02T16:54:54.845Z,99022.22
2023-02-02T16:57:29.397Z,99032.06
2023-02-02T17:00:01.800Z,99030.50
2023-02-02T17:02:37.226Z,99032.34
2023-02-02T17:05:17.780Z,99032.47
2023-02-02T17:08:05.265Z,99032.63
2023-02-02T17:10:36.887Z,99018.16
2023-02-02T17:13:40.032Z,99039.38
2023-02-02T17:16:20.588Z,99033.06
2023-02-02T17:18:55.036Z,99047.59
2023-02-02T17:21:27.354Z,99017.72
2023-02-02T17:23:58.835Z,99041.03
2023-02-02T17:26:28.100Z,99048.75
2023-02-02T17:29:03.126Z,99039.44
2023-02-02T17:31:32.930Z,99044.41
2023-02-02T17:34:02.450Z,99046.75
2023-02-02T17:36:31.779Z,99043.28
2023-02-02T17:39:02.826Z,99038.03
2023-02-02T17:41:37.606Z,99063.66
2023-02-02T17:44:08.877Z,99051.69
2023-02-02T17:46:43.822Z,99059.34
2023-02-02T17:49:13.082Z,99049.09
2023-02-02T17:51:43.320Z,99044.69
2023-02-02T17:54:16.460Z,99056.63
2023-02-02T17:56:48.884Z,99059.13
2023-02-02T17:59:18.332Z,99066.84
2023-02-02T18:01:47.429Z,99061.00
2023-02-02T18:04:17.356Z,99002.72
2023-02-02T18:06:46.424Z,99039.66
2023-02-02T18:09:17.838Z,99033.78
2023-02-02T18:11:49.369Z,99051.69
2023-02-02T18:14:19.297Z,99032.88
2023-02-02T18:16:48.562Z,99052.66
2023-02-02T18:19:19.262Z,99056.00
2023-02-02T18:21:48.618Z,99043.97
2023-02-02T18:24:19.769Z,99056.78
2023-02-02T18:26:49.158Z,99059.38
2023-02-02T18:29:18.332Z,99040.47
2023-02-02T18:31:48.088Z,99027.53
2023-02-02T18:34:17.181Z,99048.78
2023-02-02T18:36:46.346Z,99047.13
2023-02-02T18:39:16.095Z,99036.97
2023-02-02T18:41:47.487Z,99056.47
2023-02-02T18:44:16.810Z,99068.19
2023-02-02T18:46:46.122Z,99064.88
2023-02-02T18:49:15.532Z,99065.88
2023-02-02T18:51:45.889Z,99055.59
2023-02-02T18:54:15.307Z,99076.16
2023-02-02T18:56:46.379Z,99068.53
2023-02-02T18:59:21.198Z,99075.25
2023-02-02T19:01:50.429Z,99071.06
2023-02-02T19:04:19.633Z,99065.41
2023-02-02T19:07:01.868Z,99068.88
2023-02-02T19:09:31.143Z,99077.41
2023-02-02T19:12:14.556Z,99070.75
2023-02-02T19:14:44.232Z,99065.50
2023-02-02T19:17:24.065Z,99076.81
2023-02-02T19:19:54.346Z,99059.66
2023-02-02T19:22:29.936Z,99072.53
2023-02-02T19:25:00.925Z,99055.31
2023-02-02T19:27:37.701Z,99075.91
2023-02-02T19:30:17.864Z,99053.53
2023-02-02T19:32:47.367Z,99074.00
2023-02-02T19:35:21.826Z,99039.91
2023-02-02T19:37:57.206Z,99058.66
2023-02-02T19:40:27.509Z,99036.09
2023-02-02T19:43:10.652Z,99040.97
2023-02-02T19:45:41.128Z,99045.66
2023-02-02T19:48:18.619Z,99077.97
2023-02-02T19:50:48.972Z,99077.69
2023-02-02T19:53:22.655Z,99071.75
2023-02-02T19:55:53.212Z,99077.75
2023-02-02T19:58:36.969Z,99057.31
2023-02-02T20:01:20.322Z,99070.34
2023-02-02T20:03:55.627Z,99062.81
2023-02-02T20:06:30.010Z,99082.50
2023-02-02T20:09:03.285Z,99064.50
2023-02-02T20:11:36.932Z,99084.22
2023-02-02T20:14:33.846Z,99075.78
2023-02-02T20:17:07.377Z,99039.66
2023-02-02T20:19:42.355Z,99083.59
2023-02-02T20:22:25.524Z,99080.13
2023-02-02T20:24:56.127Z,99080.03
2023-02-02T20:27:28.056Z,99078.38
2023-02-02T20:30:09.989Z,99088.84
2023-02-02T20:32:41.840Z,99087.81
2023-02-02T20:35:21.840Z,99078.72
2023-02-02T20:37:55.305Z,99074.19
2023-02-02T20:40:27.615Z,99092.94
2023-02-02T20:42:57.882Z,99097.13
2023-02-02T20:45:34.201Z,99087.72
2023-02-02T20:48:03.403Z,99091.16
2023-02-02T20:50:33.221Z,99086.03
2023-02-02T20:53:02.558Z,99083.47
2023-02-02T20:55:32.844Z,99086.75
2023-02-02T20:58:07.751Z,99008.88
2023-02-02T21:00:47.321Z,99077.66
2023-02-02T21:03:16.812Z,99090.50
2023-02-02T21:05:47.002Z,99081.84
2023-02-02T21:08:16.433Z,99059.50
2023-02-02T21:10:45.727Z,99049.88
2023-02-02T21:13:15.095Z,99089.38
2023-02-02T21:15:46.262Z,99086.84
2023-02-02T21:18:15.682Z,99086.84
2023-02-02T21:20:44.985Z,99080.78
2023-02-02T21:23:14.260Z,99081.78
2023-02-02T21:25:43.461Z,99083.53
2023-02-02T21:28:12.878Z,99077.59
2023-02-02T21:30:42.267Z,99089.41
2023-02-02T21:33:13.651Z,99094.47
2023-02-02T21:35:48.094Z,99081.81
2023-02-02T21:38:19.929Z,99039.66
2023-02-02T21:40:50.073Z,99099.03
2023-02-02T21:43:20.179Z,99096.25
2023-02-02T21:45:57.895Z,99108.94
2023-02-02T21:48:34.824Z,99103.72
2023-02-02T21:51:25.242Z,99103.75
2023-02-02T21:53:54.592Z,99099.47
2023-02-02T21:56:29.017Z,99103.53
2023-02-02T21:59:01.326Z,99101.03
2023-02-02T22:01:36.052Z,99102.88
2023-02-02T22:04:17.022Z,99107.22
2023-02-02T22:06:52.977Z,99101.25
2023-02-02T22:09:25.073Z,99081.66
2023-02-02T22:11:56.222Z,99094.59
2023-02-02T22:14:33.447Z,99097.03
2023-02-02T22:17:07.329Z,99097.00
2023-02-02T22:19:41.074Z,99091.13
2023-02-02T22:25:08.247Z,99103.16
2023-02-02T22:27:44.739Z,99088.84
2023-02-02T22:30:22.493Z,99093.97
2023-02-02T22:32:51.706Z,99081.97
2023-02-02T22:35:28.607Z,99092.25
2023-02-02T22:37:58.183Z,99100.75
2023-02-02T22:40:28.099Z,99089.69
2023-02-02T22:43:00.482Z,99062.97
2023-02-02T22:45:29.983Z,99099.84
2023-02-02T22:47:59.702Z,99088.84
2023-02-02T22:50:34.895Z,99103.19
2023-02-02T22:53:04.815Z,99104.16
2023-02-02T22:55:34.879Z,99102.38
2023-02-02T22:58:04.297Z,99106.78
2023-02-02T23:00:34.705Z,99106.81
2023-02-02T23:03:08.948Z,99103.53
2023-02-02T23:05:40.031Z,99115.44
2023-02-02T23:08:09.310Z,99088.94
2023-02-02T23:10:38.421Z,99095.84
2023-02-02T23:13:07.778Z,99100.97
2023-02-02T23:15:47.466Z,99093.97
2023-02-02T23:18:16.603Z,99105.72
2023-02-02T23:20:53.458Z,99106.44
2023-02-02T23:23:27.335Z,99107.69
2023-02-02T23:25:56.823Z,99081.16
2023-02-02T23:28:26.046Z,99106.75
2023-02-02T23:30:58.728Z,99092.19
2023-02-02T23:33:27.991Z,99101.66
2023-02-02T23:35:59.144Z,99090.75
2023-02-02T23:38:28.373Z,99088.19
2023-02-02T23:40:57.885Z,99100.22
2023-02-02T23:43:27.272Z,99100.09
2023-02-02T23:45:56.652Z,99097.28
2023-02-02T23:48:26.671Z,99105.63
2023-02-02T23:50:56.061Z,99085.25
2023-02-02T23:53:27.383Z,99090.94
2023-02-02T23:58:42.391Z,99101.06
